createdAt,value
2022-10-19T00:01:41.279Z,99529.27
2022-10-19T00:04:57.369Z,99530.73
2022-10-19T00:08:13.781Z,99530.00
2022-10-19T00:11:30.292Z,99530.81
2022-10-19T00:14:48.758Z,99533.56
2022-10-19T00:18:05.597Z,99537.27
2022-10-19T00:21:24.412Z,99528.80
2022-10-19T00:24:40.482Z,99526.30
2022-10-19T00:27:58.990Z,99534.14
2022-10-19T00:31:18.808Z,99530.73
2022-10-19T00:34:35.063Z,99524.02
2022-10-19T00:37:52.537Z,99530.35
2022-10-19T00:41:10.078Z,99540.47
2022-10-19T00:45:15.791Z,99530.81
2022-10-19T00:48:36.288Z,99530.55
2022-10-19T00:51:56.129Z,99529.70
2022-10-19T00:55:13.607Z,99533.09
2022-10-19T00:58:29.644Z,99528.53
2022-10-19T01:01:48.459Z,99523.36
2022-10-19T01:05:04.719Z,99514.91
2022-10-19T01:08:21.668Z,99509.03
2022-10-19T01:11:49.643Z,99506.91
2022-10-19T01:15:20.600Z,99507.09
2022-10-19T01:18:43.497Z,99503.51
2022-10-19T01:22:04.481Z,99500.22
2022-10-19T01:25:29.316Z,99498.02
2022-10-19T01:28:57.932Z,99495.63
2022-10-19T01:32:19.278Z,99486.70
2022-10-19T01:35:41.581Z,99485.70
2022-10-19T01:39:06.031Z,99488.36
2022-10-19T01:42:27.991Z,99484.69
2022-10-19T01:45:50.001Z,99483.77
2022-10-19T01:49:10.138Z,99472.38
2022-10-19T01:52:31.270Z,99465.16
2022-10-19T01:55:55.049Z,99470.30
2022-10-19T01:59:14.769Z,99462.88
2022-10-19T02:02:34.875Z,99476.81
2022-10-19T02:05:52.544Z,99480.22
2022-10-19T02:09:08.885Z,99480.17
2022-10-19T02:12:26.569Z,99470.69
2022-10-19T02:15:46.626Z,99481.88
2022-10-19T02:19:04.124Z,99476.27
2022-10-19T02:22:21.779Z,99472.14
2022-10-19T02:25:37.920Z,99477.94
2022-10-19T02:28:54.192Z,99473.42
2022-10-19T02:32:11.232Z,99472.80
2022-10-19T02:35:27.808Z,99461.77
2022-10-19T02:38:44.691Z,99458.45
2022-10-19T02:42:05.652Z,99459.64
2022-10-19T02:45:26.056Z,99456.81
2022-10-19T02:48:44.867Z,99445.31
2022-10-19T02:52:11.193Z,99450.83
2022-10-19T02:55:27.560Z,99449.83
2022-10-19T02:58:43.783Z,99453.69
2022-10-19T03:02:00.094Z,99448.36
2022-10-19T03:05:17.388Z,99453.69
2022-10-19T03:08:33.915Z,99443.57
2022-10-19T03:11:49.859Z,99449.28
2022-10-19T03:15:05.809Z,99441.09
2022-10-19T03:18:21.891Z,99442.56
2022-10-19T03:21:39.089Z,99444.23
2022-10-19T03:24:55.066Z,99450.75
2022-10-19T03:28:11.240Z,99460.02
2022-10-19T03:31:27.855Z,99439.91
2022-10-19T03:34:43.986Z,99445.95
2022-10-19T03:38:00.043Z,99440.82
2022-10-19T03:41:17.303Z,99445.11
2022-10-19T03:44:33.592Z,99445.77
2022-10-19T03:47:50.053Z,99447.62
2022-10-19T03:51:11.225Z,99442.83
2022-10-19T03:54:27.642Z,99452.29
2022-10-19T03:57:43.782Z,99446.30
2022-10-19T04:00:59.984Z,99447.97
2022-10-19T04:04:19.064Z,99428.52
2022-10-19T04:07:35.885Z,99424.84
2022-10-19T04:10:52.264Z,99419.87
2022-10-19T04:17:28.490Z,99421.52
2022-10-19T04:20:44.714Z,99421.06
2022-10-19T04:24:05.250Z,99422.06
2022-10-19T04:27:21.265Z,99422.91
2022-10-19T04:30:37.410Z,99419.21
2022-10-19T04:33:53.721Z,99421.72
2022-10-19T04:37:09.839Z,99419.59
2022-10-19T04:40:26.061Z,99420.78
2022-10-19T04:43:42.437Z,99429.50
2022-10-19T04:47:00.355Z,99420.57
2022-10-19T04:50:17.562Z,99424.42
2022-10-19T04:53:35.423Z,99414.97
2022-10-19T04:56:51.546Z,99420.48
2022-10-19T05:00:07.887Z,99409.36
2022-10-19T05:03:25.581Z,99411.75
2022-10-19T05:06:41.811Z,99411.94
2022-10-19T05:09:57.789Z,99411.28
2022-10-19T05:13:14.284Z,99418.89
2022-10-19T05:16:31.931Z,99424.20
2022-10-19T05:19:48.029Z,99418.73
2022-10-19T05:23:07.271Z,99420.20
2022-10-19T05:26:22.528Z,99425.68
2022-10-19T05:29:38.833Z,99418.73
2022-10-19T05:32:55.042Z,99424.05
2022-10-19T05:36:25.553Z,99417.41
2022-10-19T05:39:41.793Z,99418.41
2022-10-19T05:42:58.169Z,99422.58
2022-10-19T05:46:18.309Z,99434.05
2022-10-19T05:49:34.380Z,99437.52
2022-10-19T05:52:50.396Z,99425.24
2022-10-19T05:56:06.897Z,99437.89
2022-10-19T05:59:27.174Z,99440.73
2022-10-19T06:02:44.446Z,99445.69
2022-10-19T06:06:01.521Z,99446.16
2022-10-19T06:09:18.593Z,99446.63
2022-10-19T06:12:34.959Z,99456.09
2022-10-19T06:15:53.405Z,99461.31
2022-10-19T06:19:10.466Z,99471.83
2022-10-19T06:22:26.675Z,99482.84
2022-10-19T06:25:43.979Z,99482.00
2022-10-19T06:29:03.164Z,99473.73
2022-10-19T06:32:19.340Z,99477.09
2022-10-19T06:35:37.990Z,99475.45
2022-10-19T06:38:54.515Z,99477.31
2022-10-19T06:42:14.202Z,99481.45
2022-10-19T06:45:36.867Z,99479.86
2022-10-19T06:48:58.261Z,99487.89
2022-10-19T06:52:14.984Z,99500.34
2022-10-19T06:55:31.200Z,99505.16
2022-10-19T06:58:48.122Z,99508.47
2022-10-19T07:02:04.461Z,99525.83
2022-10-19T07:05:21.348Z,99517.70
2022-10-19T07:08:42.174Z,99525.78
2022-10-19T07:11:58.372Z,99524.91
2022-10-19T07:15:18.377Z,99522.89
2022-10-19T07:18:36.591Z,99523.55
2022-10-19T07:21:57.414Z,99528.03
2022-10-19T07:25:12.881Z,99537.38
2022-10-19T07:28:29.653Z,99541.03
2022-10-19T07:31:46.781Z,99536.47
2022-10-19T07:35:03.028Z,99534.97
2022-10-19T07:38:20.239Z,99534.69
2022-10-19T07:41:41.671Z,99526.04
2022-10-19T07:44:57.770Z,99520.52
2022-10-19T07:48:14.363Z,99529.25
2022-10-19T07:51:31.071Z,99532.83
2022-10-19T07:54:50.437Z,99531.66
2022-10-19T07:58:07.341Z,99523.27
2022-10-19T08:01:26.801Z,99524.95
2022-10-19T08:04:59.610Z,99518.72
2022-10-19T08:08:01.258Z,99516.49
2022-10-19T08:11:25.432Z,99516.86
2022-10-19T08:14:41.632Z,99519.53
2022-10-19T08:17:57.754Z,99512.53
2022-10-19T08:21:14.222Z,99507.81
2022-10-19T08:24:30.802Z,99507.25
2022-10-19T08:27:46.997Z,99509.52
2022-10-19T08:31:03.154Z,99511.98
2022-10-19T08:34:20.490Z,99516.14
2022-10-19T08:37:44.758Z,99511.62
2022-10-19T08:40:56.488Z,99502.91
2022-10-19T08:45:07.346Z,99506.71
2022-10-19T08:48:37.756Z,99521.44
2022-10-19T08:51:57.382Z,99513.29
2022-10-19T08:55:24.894Z,99518.77
2022-10-19T08:58:50.851Z,99514.13
2022-10-19T09:02:13.574Z,99511.27
2022-10-19T09:05:37.142Z,99507.33
2022-10-19T09:08:55.168Z,99516.84
2022-10-19T09:12:15.450Z,99508.49
2022-10-19T09:15:36.951Z,99507.06
2022-10-19T09:22:14.024Z,99509.85
2022-10-19T09:25:33.584Z,99512.68
2022-10-19T09:28:59.153Z,99516.09
2022-10-19T09:32:21.702Z,99518.22
2022-10-19T09:35:42.340Z,99516.37
2022-10-19T09:38:59.775Z,99527.22
2022-10-19T09:42:26.242Z,99522.63
2022-10-19T09:45:51.760Z,99504.63
2022-10-19T09:49:11.458Z,99519.23
2022-10-19T09:52:42.384Z,99527.03
2022-10-19T09:56:07.026Z,99519.88
2022-10-19T09:59:30.861Z,99529.89
2022-10-19T10:02:47.214Z,99519.61
2022-10-19T10:06:07.555Z,99529.08
2022-10-19T10:09:29.448Z,99524.56
2022-10-19T10:12:47.743Z,99519.69
2022-10-19T10:16:09.039Z,99512.33
2022-10-19T10:19:27.248Z,99513.02
2022-10-19T10:22:44.886Z,99509.46
2022-10-19T10:26:05.919Z,99511.12
2022-10-19T10:29:33.212Z,99513.88
2022-10-19T10:32:54.731Z,99511.21
2022-10-19T10:36:16.333Z,99514.80
2022-10-19T10:39:34.109Z,99514.99
2022-10-19T10:42:54.362Z,99521.08
2022-10-19T10:46:19.511Z,99516.75
2022-10-19T10:49:43.068Z,99525.96
2022-10-19T10:53:15.917Z,99511.36
2022-10-19T10:56:40.104Z,99522.31
2022-10-19T11:00:08.516Z,99516.78
2022-10-19T11:03:29.914Z,99515.33
2022-10-19T11:06:53.332Z,99512.59
2022-10-19T11:10:14.409Z,99503.58
2022-10-19T11:13:37.254Z,99501.27
2022-10-19T11:16:57.454Z,99501.92
2022-10-19T11:20:19.292Z,99511.00
2022-10-19T11:23:46.924Z,99505.05
2022-10-19T11:27:14.066Z,99513.41
2022-10-19T11:30:32.361Z,99517.27
2022-10-19T11:34:04.074Z,99517.66
2022-10-19T11:37:28.944Z,99525.01
2022-10-19T11:41:13.297Z,99516.95
2022-10-19T11:44:31.573Z,99518.95
2022-10-19T11:48:10.349Z,99518.69
2022-10-19T11:51:34.284Z,99516.48
2022-10-19T11:55:04.795Z,99516.30
2022-10-19T11:58:40.238Z,99517.30
2022-10-19T12:02:05.809Z,99512.23
2022-10-19T12:05:25.549Z,99505.90
2022-10-19T12:08:57.131Z,99498.02
2022-10-19T12:12:36.291Z,99500.11
2022-10-19T12:15:55.394Z,99485.31
2022-10-19T12:19:15.106Z,99477.41
2022-10-19T12:22:35.841Z,99480.63
2022-10-19T12:25:54.404Z,99483.65
2022-10-19T12:29:16.796Z,99475.66
2022-10-19T12:32:35.512Z,99475.11
2022-10-19T12:36:17.371Z,99470.52
2022-10-19T12:39:39.390Z,99485.50
2022-10-19T12:43:01.996Z,99484.95
2022-10-19T12:46:30.969Z,99479.05
2022-10-19T12:50:03.876Z,99478.03
2022-10-19T12:53:31.449Z,99475.56
2022-10-19T12:56:59.178Z,99478.62
2022-10-19T13:00:29.770Z,99483.84
2022-10-19T13:03:49.276Z,99493.42
2022-10-19T13:07:13.217Z,99494.16
2022-10-19T13:10:32.677Z,99492.84
2022-10-19T13:14:13.136Z,99489.56
2022-10-19T13:17:50.666Z,99482.84
2022-10-19T13:21:08.429Z,99494.58
2022-10-19T13:27:58.947Z,99483.92
2022-10-19T13:34:31.960Z,99486.27
2022-10-19T13:37:48.253Z,99487.94
2022-10-19T13:41:14.750Z,99484.80
2022-10-19T13:44:36.185Z,99492.80
2022-10-19T13:47:55.648Z,99493.92
2022-10-19T13:51:16.931Z,99487.13
2022-10-19T13:54:52.136Z,99494.45
2022-10-19T13:58:39.047Z,99502.45
2022-10-19T14:02:08.461Z,99499.91
2022-10-19T14:06:04.883Z,99497.59
2022-10-19T14:10:03.020Z,99495.84
2022-10-19T14:13:24.076Z,99487.91
2022-10-19T14:16:41.214Z,99485.97
2022-10-19T14:20:00.610Z,99482.38
2022-10-19T14:23:31.619Z,99478.42
2022-10-19T14:26:50.450Z,99478.33
2022-10-19T14:30:06.677Z,99482.65
2022-10-19T14:33:26.752Z,99473.19
2022-10-19T14:36:48.912Z,99473.81
2022-10-19T14:40:26.806Z,99473.00
2022-10-19T14:43:44.245Z,99478.52
2022-10-19T14:50:21.363Z,99484.84
2022-10-19T14:53:45.375Z,99479.80
2022-10-19T14:57:05.503Z,99481.80
2022-10-19T15:00:28.132Z,99485.31
2022-10-19T15:03:47.176Z,99490.80
2022-10-19T15:07:05.356Z,99489.45
2022-10-19T15:10:35.621Z,99486.03
2022-10-19T15:13:52.630Z,99492.35
2022-10-19T15:20:44.067Z,99492.70
2022-10-19T15:23:56.251Z,99485.08
2022-10-19T15:27:26.936Z,99501.68
2022-10-19T15:37:21.611Z,99510.75
2022-10-19T15:40:46.514Z,99499.77
2022-10-19T15:44:05.067Z,99503.23
2022-10-19T15:47:31.421Z,99511.88
2022-10-19T15:50:52.885Z,99510.22
2022-10-19T15:54:11.386Z,99523.72
2022-10-19T15:57:40.907Z,99519.73
2022-10-19T16:04:12.877Z,99524.42
2022-10-19T16:07:40.017Z,99524.95
2022-10-19T16:10:56.308Z,99529.79
2022-10-19T16:17:33.815Z,99538.88
2022-10-19T16:20:50.042Z,99539.76
2022-10-19T16:24:07.057Z,99557.11
2022-10-19T16:27:26.560Z,99555.14
2022-10-19T16:30:42.686Z,99564.11
2022-10-19T16:33:58.841Z,99562.32
2022-10-19T16:37:19.523Z,99569.47
2022-10-19T16:40:35.772Z,99562.68
2022-10-19T16:43:52.835Z,99554.04
2022-10-19T16:50:24.619Z,99565.14
2022-10-19T16:53:41.770Z,99562.66
2022-10-19T16:56:58.043Z,99575.11
2022-10-19T17:00:17.854Z,99587.23
2022-10-19T17:03:35.019Z,99591.41
2022-10-19T17:06:51.313Z,99588.27
2022-10-19T17:10:07.585Z,99593.95
2022-10-19T17:13:23.784Z,99592.42
2022-10-19T17:16:42.699Z,99588.95
2022-10-19T17:20:01.637Z,99601.59
2022-10-19T17:23:17.803Z,99599.94
2022-10-19T17:26:38.273Z,99596.14
2022-10-19T17:30:03.944Z,99595.97
2022-10-19T17:33:22.314Z,99600.61
2022-10-19T17:36:42.023Z,99609.77
2022-10-19T17:40:02.999Z,99614.08
2022-10-19T17:43:22.415Z,99617.89
2022-10-19T17:46:41.270Z,99622.39
2022-10-19T17:49:57.314Z,99633.83
2022-10-19T17:53:13.476Z,99633.83
2022-10-19T17:56:31.963Z,99638.80
2022-10-19T17:59:52.884Z,99642.95
2022-10-19T18:03:06.165Z,99648.58
2022-10-19T18:06:24.595Z,99646.58
2022-10-19T18:09:44.483Z,99652.73
2022-10-19T18:13:00.821Z,99647.60
2022-10-19T18:16:20.768Z,99656.19
2022-10-19T18:19:37.385Z,99654.36
2022-10-19T18:22:55.667Z,99644.05
2022-10-19T18:26:16.309Z,99660.31
2022-10-19T18:29:34.621Z,99653.65
2022-10-19T18:32:52.310Z,99656.81
2022-10-19T18:36:11.172Z,99653.17
2022-10-19T18:39:28.092Z,99653.00
2022-10-19T18:42:44.199Z,99658.00
2022-10-19T18:46:05.487Z,99656.16
2022-10-19T18:49:22.779Z,99662.28
2022-10-19T18:52:41.106Z,99668.58
2022-10-19T18:56:06.316Z,99673.20
2022-10-19T18:59:22.890Z,99679.49
2022-10-19T19:02:46.771Z,99682.14
2022-10-19T19:06:01.123Z,99674.14
2022-10-19T19:09:20.205Z,99679.73
2022-10-19T19:12:36.694Z,99684.95
2022-10-19T19:15:58.876Z,99688.23
2022-10-19T19:19:17.497Z,99691.67
2022-10-19T19:22:34.158Z,99687.98
2022-10-19T19:25:51.339Z,99700.05
2022-10-19T19:29:08.455Z,99699.70
2022-10-19T19:32:25.712Z,99695.31
2022-10-19T19:35:43.177Z,99694.95
2022-10-19T19:39:00.516Z,99696.78
2022-10-19T19:42:17.181Z,99699.88
2022-10-19T19:45:34.048Z,99709.50
2022-10-19T19:52:06.023Z,99708.65
2022-10-19T19:55:22.561Z,99715.78
2022-10-19T19:58:41.677Z,99714.93
2022-10-19T20:01:58.121Z,99720.23
2022-10-19T20:05:15.214Z,99721.45
2022-10-19T20:08:31.462Z,99728.58
2022-10-19T20:11:48.528Z,99727.11
2022-10-19T20:15:04.699Z,99734.28
2022-10-19T20:18:21.010Z,99727.02
2022-10-19T20:21:37.099Z,99721.72
2022-10-19T20:24:54.888Z,99725.34
2022-10-19T20:28:11.246Z,99729.39
2022-10-19T20:31:30.645Z,99726.83
2022-10-19T20:34:46.969Z,99735.76
2022-10-19T20:38:04.582Z,99741.22
2022-10-19T20:41:20.729Z,99748.63
2022-10-19T20:44:36.951Z,99745.08
2022-10-19T20:47:53.140Z,99744.02
2022-10-19T20:51:21.164Z,99740.71
2022-10-19T20:54:38.344Z,99746.45
2022-10-19T20:57:55.733Z,99743.11
2022-10-19T21:01:19.448Z,99745.09
2022-10-19T21:04:36.984Z,99752.95
2022-10-19T21:07:54.297Z,99755.22
2022-10-19T21:11:18.916Z,99757.23
2022-10-19T21:14:38.449Z,99755.72
2022-10-19T21:17:56.464Z,99757.16
2022-10-19T21:21:25.358Z,99754.41
2022-10-19T21:24:43.452Z,99764.45
2022-10-19T21:28:01.167Z,99765.42
2022-10-19T21:31:18.317Z,99768.07
2022-10-19T21:34:36.306Z,99768.23
2022-10-19T21:37:52.905Z,99762.66
2022-10-19T21:41:11.433Z,99760.02
2022-10-19T21:44:26.532Z,99755.81
2022-10-19T21:47:44.136Z,99761.27
2022-10-19T21:51:00.184Z,99764.06
2022-10-19T21:54:19.906Z,99761.27
2022-10-19T21:57:36.220Z,99763.09
2022-10-19T22:00:53.069Z,99755.81
2022-10-19T22:04:12.208Z,99754.30
2022-10-19T22:07:28.415Z,99759.47
2022-10-19T22:10:46.660Z,99756.83
2022-10-19T22:14:06.078Z,99762.94
2022-10-19T22:17:27.338Z,99765.42
2022-10-19T22:20:47.260Z,99764.89
2022-10-19T22:24:06.239Z,99769.90
2022-10-19T22:27:22.301Z,99766.72
2022-10-19T22:33:54.546Z,99772.39
2022-10-19T22:37:10.736Z,99769.90
2022-10-19T22:40:26.982Z,99773.95
2022-10-19T22:43:43.215Z,99783.72
2022-10-19T22:50:16.404Z,99775.66
2022-10-19T22:53:32.812Z,99774.73
2022-10-19T22:56:49.310Z,99773.20
2022-10-19T23:00:05.321Z,99786.59
2022-10-19T23:03:21.647Z,99785.22
2022-10-19T23:06:37.952Z,99784.52
2022-10-19T23:09:54.021Z,99779.66
2022-10-19T23:13:13.391Z,99789.27
2022-10-19T23:16:29.626Z,99789.14
2022-10-19T23:19:45.711Z,99792.20
2022-10-19T23:23:01.718Z,99789.83
2022-10-19T23:26:21.523Z,99795.02
2022-10-19T23:29:40.671Z,99796.41
2022-10-19T23:36:20.771Z,99799.91
2022-10-19T23:39:37.011Z,99803.13
2022-10-19T23:42:55.038Z,99806.44
2022-10-19T23:46:11.725Z,99816.05
2022-10-19T23:49:27.804Z,99818.69
2022-10-19T23:52:43.940Z,99818.69
2022-10-19T23:56:04.809Z,99821.88
2022-10-19T23:59:21.011Z,99824.53
